PIA785 OPIS-EGLL
Flight info
| Callsign | PIA785 |
|---|---|
| Flight time | N/A |
| Altitude | 26000 |
| Route | KALMI J139 HANGU G796 LAJAK/N0482F380 L509 TAPIS M875 AMDAR/K0891F380 T186 LAPZE Z407 ODIVA DCT ARISA/K0895F400 L736 ASKIL L979 GRD L32 SOTET/N0468F400 L32 SUWGI L29 ALUKA DCT HLZ DCT ABNED L980 LOGAN |
| Aircraft | B772/H-SDE2E3FGHIJ5LORVWXY/LB1D1 |
Departure
| Time | N/A |
|---|---|
| Airport | Islamabad International Airport (OPIS) |
Arrival
| Time | 2026-04-30 22:20 |
|---|---|
| Airport | London Heathrow Airport (EGLL) |
| Time | Latitude | Longitude | Altitude | Speed | Heading |
|---|---|---|---|---|---|
| 2026-04-30 20:16 | 54.04549 | 22.96732 | 40320 ft | 421 kts | 308° |
| 2026-04-30 20:16 | 54.05832 | 22.92278 | 40321 ft | 421 kts | 293° |
| 2026-04-30 20:16 | 54.06396 | 22.87377 | 40248 ft | 426 kts | 279° |
| 2026-04-30 20:16 | 54.06278 | 22.82311 | 40011 ft | 433 kts | 266° |
| 2026-04-30 20:17 | 54.05715 | 22.77255 | 39806 ft | 433 kts | 264° |
| 2026-04-30 20:17 | 54.04473 | 22.67444 | 39739 ft | 423 kts | 264° |
| 2026-04-30 20:18 | 54.03246 | 22.57544 | 39792 ft | 428 kts | 264° |
| 2026-04-30 20:18 | 54.02648 | 22.52595 | 39985 ft | 426 kts | 264° |
| 2026-04-30 20:18 | 54.02059 | 22.47667 | 40126 ft | 425 kts | 264° |
| 2026-04-30 20:19 | 54.00893 | 22.37839 | 40159 ft | 431 kts | 265° |
| 2026-04-30 20:19 | 53.99841 | 22.27793 | 40324 ft | 433 kts | 266° |
| 2026-04-30 20:20 | 53.98832 | 22.17592 | 40362 ft | 440 kts | 266° |
| 2026-04-30 20:20 | 53.97788 | 22.07239 | 40324 ft | 449 kts | 266° |
| 2026-04-30 20:21 | 53.96698 | 21.96694 | 40356 ft | 457 kts | 265° |
| 2026-04-30 20:21 | 53.95579 | 21.86034 | 40356 ft | 466 kts | 265° |
| 2026-04-30 20:22 | 53.94419 | 21.75093 | 40357 ft | 474 kts | 265° |
| 2026-04-30 20:22 | 53.93228 | 21.63962 | 40356 ft | 483 kts | 265° |
| 2026-04-30 20:23 | 53.92006 | 21.52634 | 40361 ft | 491 kts | 264° |
| 2026-04-30 20:23 | 53.90761 | 21.41215 | 40334 ft | 498 kts | 264° |
| 2026-04-30 20:24 | 53.89481 | 21.29586 | 40354 ft | 503 kts | 264° |
| 2026-04-30 20:24 | 53.88181 | 21.17889 | 40359 ft | 506 kts | 264° |
| 2026-04-30 20:25 | 53.86202 | 21.00278 | 40346 ft | 506 kts | 264° |
| 2026-04-30 20:26 | 53.84215 | 20.82846 | 40347 ft | 502 kts | 264° |
| 2026-04-30 20:26 | 53.82214 | 20.65508 | 40342 ft | 498 kts | 264° |
| 2026-04-30 20:27 | 53.79530 | 20.42601 | 40350 ft | 495 kts | 263° |
| 2026-04-30 20:28 | 53.77038 | 20.21682 | 40322 ft | 496 kts | 263° |
| 2026-04-30 20:30 | 53.73562 | 19.93045 | 40359 ft | 499 kts | 263° |
| 2026-04-30 20:31 | 53.69276 | 19.58558 | 40330 ft | 502 kts | 263° |
| 2026-04-30 20:32 | 53.65617 | 19.29780 | 40350 ft | 501 kts | 263° |
| 2026-04-30 20:33 | 53.63403 | 19.12645 | 40357 ft | 501 kts | 262° |
| 2026-04-30 20:34 | 53.61151 | 18.95431 | 40342 ft | 500 kts | 262° |
| 2026-04-30 20:35 | 53.58884 | 18.78301 | 40353 ft | 500 kts | 262° |
| 2026-04-30 20:35 | 53.56586 | 18.61145 | 40358 ft | 500 kts | 262° |
| 2026-04-30 20:36 | 53.55050 | 18.49790 | 40362 ft | 500 kts | 262° |
| 2026-04-30 20:37 | 53.52711 | 18.32658 | 40358 ft | 500 kts | 262° |
| 2026-04-30 20:37 | 53.51139 | 18.21257 | 40363 ft | 500 kts | 262° |
| 2026-04-30 20:38 | 53.49558 | 18.09874 | 40369 ft | 500 kts | 262° |
| 2026-04-30 20:38 | 53.47976 | 17.98572 | 40370 ft | 500 kts | 261° |
| 2026-04-30 20:39 | 53.45564 | 17.81505 | 40371 ft | 501 kts | 261° |
| 2026-04-30 20:39 | 53.44755 | 17.75819 | 39433 ft | 499 kts | 258° |
| 2026-04-30 20:40 | 53.43166 | 17.64563 | 40444 ft | 498 kts | 261° |
| 2026-04-30 20:40 | 53.41518 | 17.53219 | 40406 ft | 503 kts | 261° |
| 2026-04-30 20:41 | 53.39017 | 17.36095 | 40395 ft | 505 kts | 261° |
| 2026-04-30 20:41 | 53.37349 | 17.24749 | 40383 ft | 504 kts | 261° |
| 2026-04-30 20:42 | 53.35664 | 17.13366 | 40384 ft | 502 kts | 261° |
| 2026-04-30 20:43 | 53.33134 | 16.96416 | 40397 ft | 499 kts | 260° |
| 2026-04-30 20:43 | 53.31437 | 16.85146 | 40403 ft | 497 kts | 260° |
| 2026-04-30 20:44 | 53.28903 | 16.68458 | 40407 ft | 496 kts | 260° |
| 2026-04-30 20:45 | 53.25473 | 16.46143 | 40403 ft | 495 kts | 260° |
| 2026-04-30 20:45 | 53.23741 | 16.34996 | 40415 ft | 496 kts | 259° |
| 2026-04-30 20:46 | 53.20245 | 16.12715 | 40414 ft | 496 kts | 259° |
| 2026-04-30 20:47 | 53.17608 | 15.96105 | 40419 ft | 495 kts | 259° |
| 2026-04-30 20:48 | 53.14933 | 15.79431 | 40423 ft | 495 kts | 259° |
| 2026-04-30 20:48 | 53.13141 | 15.68346 | 40413 ft | 495 kts | 259° |
| 2026-04-30 20:49 | 53.11351 | 15.57347 | 40412 ft | 495 kts | 259° |
| 2026-04-30 20:50 | 53.08617 | 15.40684 | 40405 ft | 495 kts | 259° |
| 2026-04-30 20:50 | 53.06794 | 15.29666 | 40410 ft | 493 kts | 258° |
| 2026-04-30 20:51 | 53.04977 | 15.18749 | 40412 ft | 493 kts | 258° |
| 2026-04-30 20:51 | 53.02219 | 15.02316 | 40415 ft | 492 kts | 258° |
| 2026-04-30 20:52 | 53.00372 | 14.91394 | 40417 ft | 492 kts | 258° |
| 2026-04-30 20:53 | 52.97574 | 14.74975 | 40418 ft | 492 kts | 258° |
| 2026-04-30 20:53 | 52.95698 | 14.64052 | 40421 ft | 493 kts | 258° |
| 2026-04-30 20:54 | 52.92859 | 14.47647 | 40415 ft | 493 kts | 258° |
| 2026-04-30 20:55 | 52.90007 | 14.31286 | 40412 ft | 494 kts | 258° |
| 2026-04-30 20:55 | 52.88405 | 14.20258 | 40412 ft | 491 kts | 261° |
| 2026-04-30 20:56 | 52.86171 | 14.03709 | 40415 ft | 490 kts | 261° |
| 2026-04-30 20:57 | 52.83891 | 13.87217 | 40414 ft | 490 kts | 261° |
| 2026-04-30 20:57 | 52.82343 | 13.76215 | 40414 ft | 490 kts | 261° |
| 2026-04-30 20:58 | 52.80016 | 13.59840 | 40411 ft | 489 kts | 261° |
| 2026-04-30 20:58 | 52.78451 | 13.48912 | 40417 ft | 487 kts | 261° |
| 2026-04-30 20:59 | 52.76091 | 13.32577 | 40412 ft | 486 kts | 260° |
| 2026-04-30 21:00 | 52.72932 | 13.10973 | 40412 ft | 484 kts | 260° |
| 2026-04-30 21:01 | 52.70536 | 12.94787 | 40427 ft | 483 kts | 260° |
| 2026-04-30 21:02 | 52.68134 | 12.78726 | 40426 ft | 482 kts | 260° |
| 2026-04-30 21:02 | 52.66514 | 12.67984 | 40426 ft | 482 kts | 259° |
| 2026-04-30 21:03 | 52.64887 | 12.57267 | 40417 ft | 482 kts | 259° |
| 2026-04-30 21:03 | 52.63251 | 12.46564 | 40429 ft | 481 kts | 259° |
| 2026-04-30 21:04 | 52.61608 | 12.35883 | 40425 ft | 481 kts | 259° |
| 2026-04-30 21:04 | 52.59135 | 12.19944 | 40432 ft | 481 kts | 259° |
| 2026-04-30 21:05 | 52.57466 | 12.09270 | 40434 ft | 481 kts | 259° |
| 2026-04-30 21:05 | 52.55787 | 11.98605 | 40428 ft | 481 kts | 258° |
| 2026-04-30 21:06 | 52.54102 | 11.87967 | 40432 ft | 481 kts | 258° |
| 2026-04-30 21:06 | 52.52407 | 11.77333 | 40430 ft | 481 kts | 258° |
| 2026-04-30 21:07 | 52.50712 | 11.66772 | 40429 ft | 481 kts | 258° |
| 2026-04-30 21:07 | 52.48997 | 11.56156 | 40435 ft | 481 kts | 258° |
| 2026-04-30 21:08 | 52.47274 | 11.45552 | 40428 ft | 480 kts | 258° |
| 2026-04-30 21:08 | 52.45545 | 11.34975 | 40434 ft | 479 kts | 258° |
| 2026-04-30 21:09 | 52.43809 | 11.24426 | 40432 ft | 479 kts | 258° |
| 2026-04-30 21:09 | 52.42063 | 11.13880 | 40438 ft | 479 kts | 258° |
| 2026-04-30 21:10 | 52.40320 | 11.03413 | 40440 ft | 479 kts | 258° |
| 2026-04-30 21:10 | 52.38559 | 10.92888 | 40436 ft | 478 kts | 257° |
| 2026-04-30 21:11 | 52.36814 | 10.82375 | 40432 ft | 477 kts | 260° |
| 2026-04-30 21:11 | 52.35923 | 10.71697 | 40430 ft | 472 kts | 270° |
| 2026-04-30 21:12 | 52.35586 | 10.61025 | 40432 ft | 472 kts | 270° |
| 2026-04-30 21:12 | 52.35231 | 10.50278 | 40429 ft | 472 kts | 270° |
| 2026-04-30 21:13 | 52.34910 | 10.41340 | 40418 ft | 472 kts | 269° |
| 2026-04-30 21:13 | 52.34500 | 10.30605 | 40430 ft | 472 kts | 269° |
| 2026-04-30 21:14 | 52.34080 | 10.19959 | 40434 ft | 472 kts | 269° |
| 2026-04-30 21:14 | 52.33649 | 10.09228 | 40432 ft | 472 kts | 269° |
| 2026-04-30 21:15 | 52.33208 | 9.98511 | 40431 ft | 473 kts | 269° |
| 2026-04-30 21:15 | 52.32758 | 9.87776 | 40419 ft | 473 kts | 268° |
| 2026-04-30 21:16 | 52.32297 | 9.77036 | 40430 ft | 473 kts | 268° |
| 2026-04-30 21:16 | 52.31826 | 9.66335 | 40438 ft | 473 kts | 268° |
| 2026-04-30 21:17 | 52.31350 | 9.55657 | 40435 ft | 474 kts | 268° |
| 2026-04-30 21:17 | 52.30860 | 9.44895 | 40431 ft | 475 kts | 268° |
| 2026-04-30 21:18 | 52.30359 | 9.34124 | 40426 ft | 476 kts | 268° |
| 2026-04-30 21:18 | 52.29847 | 9.23348 | 40432 ft | 476 kts | 268° |
| 2026-04-30 21:19 | 52.29325 | 9.12562 | 40427 ft | 476 kts | 268° |
| 2026-04-30 21:19 | 52.28794 | 9.01807 | 40427 ft | 475 kts | 267° |
| 2026-04-30 21:20 | 52.28254 | 8.91064 | 40415 ft | 474 kts | 267° |
| 2026-04-30 21:20 | 52.27707 | 8.80354 | 40424 ft | 473 kts | 267° |
| 2026-04-30 21:21 | 52.27149 | 8.69654 | 40418 ft | 473 kts | 267° |
| 2026-04-30 21:22 | 52.26297 | 8.53643 | 40412 ft | 472 kts | 267° |
| 2026-04-30 21:23 | 52.25131 | 8.32351 | 40407 ft | 471 kts | 266° |
| 2026-04-30 21:23 | 52.24228 | 8.16357 | 40404 ft | 472 kts | 266° |
| 2026-04-30 21:24 | 52.23614 | 8.05688 | 40403 ft | 472 kts | 266° |
| 2026-04-30 21:24 | 52.22989 | 7.95006 | 40403 ft | 472 kts | 266° |
| 2026-04-30 21:25 | 52.22039 | 7.79057 | 40400 ft | 473 kts | 266° |
| 2026-04-30 21:26 | 52.21048 | 7.63021 | 40402 ft | 473 kts | 265° |
| 2026-04-30 21:27 | 52.20057 | 7.46975 | 40388 ft | 473 kts | 265° |
| 2026-04-30 21:27 | 52.19380 | 7.36282 | 40383 ft | 474 kts | 265° |
| 2026-04-30 21:28 | 52.18348 | 7.20337 | 40387 ft | 473 kts | 265° |
| 2026-04-30 21:29 | 52.17290 | 7.04329 | 40383 ft | 473 kts | 265° |
| 2026-04-30 21:30 | 52.15489 | 6.77752 | 40366 ft | 473 kts | 264° |
| 2026-04-30 21:31 | 52.13616 | 6.51157 | 40367 ft | 473 kts | 264° |
| 2026-04-30 21:32 | 52.12469 | 6.35210 | 40350 ft | 473 kts | 264° |
| 2026-04-30 21:32 | 52.11688 | 6.24620 | 40357 ft | 473 kts | 263° |
| 2026-04-30 21:33 | 52.10504 | 6.08624 | 40356 ft | 475 kts | 263° |
| 2026-04-30 21:34 | 52.09696 | 5.97937 | 40344 ft | 477 kts | 263° |
| 2026-04-30 21:34 | 52.08467 | 5.81852 | 40350 ft | 478 kts | 263° |
| 2026-04-30 21:35 | 52.07631 | 5.71193 | 40353 ft | 477 kts | 263° |
| 2026-04-30 21:35 | 52.06786 | 5.60499 | 40329 ft | 476 kts | 263° |
| 2026-04-30 21:36 | 52.05937 | 5.49826 | 40335 ft | 475 kts | 263° |
| 2026-04-30 21:37 | 52.04215 | 5.28614 | 40320 ft | 472 kts | 262° |
| 2026-04-30 21:37 | 52.03360 | 5.18127 | 40339 ft | 470 kts | 262° |
| 2026-04-30 21:38 | 52.02474 | 5.07568 | 40322 ft | 470 kts | 262° |
| 2026-04-30 21:38 | 52.01584 | 4.97059 | 40345 ft | 470 kts | 262° |
| 2026-04-30 21:39 | 52.00685 | 4.86533 | 40322 ft | 470 kts | 261° |
| 2026-04-30 21:39 | 51.99777 | 4.76029 | 40319 ft | 470 kts | 261° |
| 2026-04-30 21:40 | 51.98866 | 4.65586 | 40321 ft | 470 kts | 261° |
| 2026-04-30 21:40 | 51.97947 | 4.55124 | 40315 ft | 469 kts | 261° |
| 2026-04-30 21:41 | 51.97016 | 4.44639 | 40320 ft | 469 kts | 261° |
| 2026-04-30 21:41 | 51.96076 | 4.34157 | 40314 ft | 469 kts | 261° |
| 2026-04-30 21:42 | 51.95120 | 4.23678 | 40320 ft | 469 kts | 261° |
| 2026-04-30 21:42 | 51.94165 | 4.13273 | 40317 ft | 470 kts | 261° |
| 2026-04-30 21:43 | 51.93196 | 4.02806 | 40313 ft | 470 kts | 261° |
| 2026-04-30 21:43 | 51.92217 | 3.92337 | 40308 ft | 470 kts | 261° |
| 2026-04-30 21:44 | 51.91251 | 3.81852 | 40295 ft | 470 kts | 260° |
| 2026-04-30 21:44 | 51.90242 | 3.71397 | 40302 ft | 469 kts | 260° |
| 2026-04-30 21:45 | 51.89216 | 3.60952 | 40295 ft | 469 kts | 259° |
| 2026-04-30 21:45 | 51.88203 | 3.50537 | 40299 ft | 469 kts | 259° |
| 2026-04-30 21:46 | 51.87189 | 3.40179 | 40300 ft | 468 kts | 259° |
| 2026-04-30 21:46 | 51.86155 | 3.29738 | 39776 ft | 469 kts | 259° |
| 2026-04-30 21:47 | 51.85641 | 3.24553 | 39368 ft | 464 kts | 259° |
| 2026-04-30 21:47 | 51.85126 | 3.19433 | 38980 ft | 458 kts | 259° |
| 2026-04-30 21:47 | 51.84683 | 3.14357 | 38458 ft | 453 kts | 261° |
| 2026-04-30 21:47 | 51.84350 | 3.09307 | 38030 ft | 448 kts | 262° |
| 2026-04-30 21:48 | 51.84045 | 3.04328 | 37640 ft | 442 kts | 262° |
| 2026-04-30 21:48 | 51.83744 | 2.99402 | 37248 ft | 437 kts | 262° |
| 2026-04-30 21:48 | 51.83441 | 2.94550 | 36856 ft | 432 kts | 262° |
| 2026-04-30 21:48 | 51.83133 | 2.89744 | 36477 ft | 427 kts | 261° |
| 2026-04-30 21:49 | 51.82823 | 2.85006 | 36105 ft | 422 kts | 261° |
| 2026-04-30 21:49 | 51.82512 | 2.80312 | 35710 ft | 418 kts | 261° |
| 2026-04-30 21:49 | 51.82202 | 2.75658 | 35326 ft | 414 kts | 261° |
| 2026-04-30 21:49 | 51.81897 | 2.71093 | 34932 ft | 411 kts | 261° |
| 2026-04-30 21:50 | 51.81589 | 2.66515 | 34559 ft | 408 kts | 261° |
| 2026-04-30 21:50 | 51.81279 | 2.61979 | 34159 ft | 404 kts | 261° |
| 2026-04-30 21:50 | 51.80969 | 2.57473 | 33733 ft | 401 kts | 261° |
| 2026-04-30 21:50 | 51.80661 | 2.53022 | 33340 ft | 397 kts | 261° |
| 2026-04-30 21:51 | 51.80353 | 2.48591 | 32964 ft | 395 kts | 261° |
| 2026-04-30 21:51 | 51.80042 | 2.44161 | 32602 ft | 400 kts | 261° |
| 2026-04-30 21:51 | 51.79722 | 2.39623 | 32241 ft | 411 kts | 260° |
| 2026-04-30 21:51 | 51.79400 | 2.35066 | 31829 ft | 413 kts | 260° |
| 2026-04-30 21:52 | 51.79077 | 2.30473 | 31428 ft | 409 kts | 260° |
| 2026-04-30 21:52 | 51.78754 | 2.25928 | 31033 ft | 405 kts | 260° |
| 2026-04-30 21:52 | 51.78434 | 2.21426 | 30650 ft | 402 kts | 261° |
| 2026-04-30 21:52 | 51.78152 | 2.16946 | 30255 ft | 399 kts | 261° |
| 2026-04-30 21:53 | 51.77896 | 2.12502 | 29805 ft | 396 kts | 261° |
| 2026-04-30 21:53 | 51.77646 | 2.08096 | 29399 ft | 392 kts | 261° |
| 2026-04-30 21:53 | 51.77396 | 2.03723 | 29008 ft | 389 kts | 261° |
| 2026-04-30 21:53 | 51.77143 | 1.99389 | 28612 ft | 386 kts | 261° |
| 2026-04-30 21:54 | 51.76887 | 1.95093 | 28227 ft | 383 kts | 261° |
| 2026-04-30 21:54 | 51.76629 | 1.90802 | 27846 ft | 381 kts | 261° |
| 2026-04-30 21:54 | 51.76372 | 1.86556 | 27463 ft | 379 kts | 261° |
| 2026-04-30 21:54 | 51.76116 | 1.82379 | 27096 ft | 378 kts | 261° |
| 2026-04-30 21:55 | 51.75857 | 1.78163 | 26722 ft | 376 kts | 261° |
| 2026-04-30 21:55 | 51.75598 | 1.73970 | 26341 ft | 375 kts | 261° |
| 2026-04-30 21:55 | 51.75338 | 1.69768 | 25982 ft | 374 kts | 261° |
| 2026-04-30 21:55 | 51.75077 | 1.65599 | 25622 ft | 373 kts | 261° |
| 2026-04-30 21:56 | 51.74815 | 1.61440 | 25264 ft | 373 kts | 261° |
| 2026-04-30 21:56 | 51.74547 | 1.57241 | 24714 ft | 378 kts | 261° |
| 2026-04-30 21:56 | 51.74365 | 1.54438 | 24352 ft | 381 kts | 261° |
| 2026-04-30 21:56 | 51.74086 | 1.50147 | 23776 ft | 387 kts | 261° |
| 2026-04-30 21:57 | 51.73708 | 1.44362 | 22905 ft | 393 kts | 261° |
| 2026-04-30 21:57 | 51.73419 | 1.39955 | 22300 ft | 396 kts | 261° |
| 2026-04-30 21:57 | 51.73127 | 1.35517 | 21696 ft | 399 kts | 261° |
| 2026-04-30 21:57 | 51.72928 | 1.32500 | 21295 ft | 400 kts | 261° |
| 2026-04-30 21:58 | 51.72631 | 1.28023 | 20698 ft | 402 kts | 261° |
| 2026-04-30 21:58 | 51.72332 | 1.23540 | 20110 ft | 404 kts | 261° |
| 2026-04-30 21:58 | 51.72028 | 1.19021 | 19523 ft | 405 kts | 261° |
| 2026-04-30 21:58 | 51.71723 | 1.14501 | 18915 ft | 407 kts | 261° |
| 2026-04-30 21:59 | 51.71418 | 1.10013 | 18276 ft | 409 kts | 261° |
| 2026-04-30 21:59 | 51.71107 | 1.05456 | 17610 ft | 409 kts | 261° |
| 2026-04-30 21:59 | 51.70795 | 1.00906 | 16993 ft | 409 kts | 261° |
| 2026-04-30 22:00 | 51.70165 | 0.91818 | 15827 ft | 406 kts | 261° |
| 2026-04-30 22:00 | 51.69539 | 0.82832 | 14827 ft | 400 kts | 261° |
| 2026-04-30 22:00 | 51.69228 | 0.78393 | 14349 ft | 397 kts | 261° |
| 2026-04-30 22:01 | 51.68917 | 0.73971 | 13834 ft | 395 kts | 261° |
| 2026-04-30 22:01 | 51.68606 | 0.69587 | 13319 ft | 393 kts | 261° |
| 2026-04-30 22:01 | 51.68293 | 0.65217 | 12838 ft | 390 kts | 261° |
| 2026-04-30 22:01 | 51.67982 | 0.60883 | 12350 ft | 388 kts | 260° |
| 2026-04-30 22:02 | 51.67673 | 0.56585 | 11872 ft | 385 kts | 260° |
| 2026-04-30 22:02 | 51.67362 | 0.52302 | 11402 ft | 383 kts | 260° |
| 2026-04-30 22:02 | 51.67058 | 0.48113 | 10938 ft | 381 kts | 260° |
| 2026-04-30 22:02 | 51.66744 | 0.43842 | 10482 ft | 378 kts | 260° |
| 2026-04-30 22:03 | 51.66434 | 0.39645 | 10046 ft | 375 kts | 260° |
| 2026-04-30 22:03 | 51.66143 | 0.35679 | 9648 ft | 347 kts | 260° |
| 2026-04-30 22:03 | 51.65870 | 0.31963 | 9238 ft | 319 kts | 260° |
| 2026-04-30 22:03 | 51.65616 | 0.28541 | 8862 ft | 297 kts | 260° |
| 2026-04-30 22:04 | 51.65372 | 0.25296 | 8381 ft | 282 kts | 260° |
| 2026-04-30 22:04 | 51.65142 | 0.22251 | 8042 ft | 273 kts | 260° |
| 2026-04-30 22:04 | 51.64688 | 0.16279 | 7393 ft | 258 kts | 260° |
| 2026-04-30 22:05 | 51.64492 | 0.13457 | 7286 ft | 251 kts | 262° |
| 2026-04-30 22:05 | 51.64336 | 0.10672 | 7219 ft | 249 kts | 262° |
| 2026-04-30 22:05 | 51.64188 | 0.07906 | 7218 ft | 248 kts | 262° |
| 2026-04-30 22:05 | 51.64037 | 0.05124 | 7225 ft | 250 kts | 262° |
| 2026-04-30 22:06 | 51.63885 | 0.02320 | 7214 ft | 250 kts | 262° |
| 2026-04-30 22:06 | 51.63578 | -0.03251 | 7258 ft | 249 kts | 262° |
| 2026-04-30 22:06 | 51.63429 | -0.05923 | 7254 ft | 248 kts | 262° |
| 2026-04-30 22:07 | 51.63274 | -0.08696 | 7253 ft | 247 kts | 262° |
| 2026-04-30 22:07 | 51.63119 | -0.11444 | 7260 ft | 247 kts | 262° |
| 2026-04-30 22:07 | 51.62968 | -0.14118 | 7264 ft | 247 kts | 262° |
| 2026-04-30 22:07 | 51.62811 | -0.16876 | 7267 ft | 247 kts | 262° |
| 2026-04-30 22:08 | 51.62652 | -0.19645 | 7265 ft | 247 kts | 262° |
| 2026-04-30 22:08 | 51.62493 | -0.22401 | 7269 ft | 248 kts | 262° |
| 2026-04-30 22:08 | 51.62334 | -0.25148 | 7266 ft | 248 kts | 262° |
| 2026-04-30 22:08 | 51.62176 | -0.27883 | 7266 ft | 249 kts | 262° |
| 2026-04-30 22:09 | 51.62015 | -0.30650 | 7268 ft | 249 kts | 262° |
| 2026-04-30 22:09 | 51.61852 | -0.33425 | 7216 ft | 249 kts | 262° |
| 2026-04-30 22:09 | 51.61692 | -0.36153 | 7215 ft | 250 kts | 262° |
| 2026-04-30 22:09 | 51.61528 | -0.38934 | 7210 ft | 250 kts | 262° |
| 2026-04-30 22:10 | 51.61363 | -0.41733 | 7210 ft | 249 kts | 262° |
| 2026-04-30 22:10 | 51.61197 | -0.44514 | 7214 ft | 249 kts | 262° |
| 2026-04-30 22:10 | 51.61031 | -0.47286 | 7214 ft | 249 kts | 262° |
| 2026-04-30 22:10 | 51.60866 | -0.50059 | 7207 ft | 249 kts | 262° |
| 2026-04-30 22:11 | 51.60535 | -0.55584 | 7211 ft | 247 kts | 262° |
| 2026-04-30 22:11 | 51.60370 | -0.58295 | 7208 ft | 244 kts | 262° |
| 2026-04-30 22:11 | 51.60210 | -0.60942 | 7225 ft | 230 kts | 261° |
| 2026-04-30 22:12 | 51.60056 | -0.63466 | 7205 ft | 224 kts | 261° |
| 2026-04-30 22:12 | 51.59902 | -0.65966 | 7140 ft | 227 kts | 261° |
| 2026-04-30 22:12 | 51.59750 | -0.68426 | 7109 ft | 225 kts | 261° |
| 2026-04-30 22:12 | 51.59592 | -0.70967 | 6860 ft | 229 kts | 261° |
| 2026-04-30 22:13 | 51.59434 | -0.73503 | 6625 ft | 227 kts | 261° |
| 2026-04-30 22:13 | 51.59252 | -0.76024 | 6321 ft | 222 kts | 254° |
| 2026-04-30 22:13 | 51.58566 | -0.78130 | 6004 ft | 210 kts | 222° |
| 2026-04-30 22:13 | 51.57365 | -0.79295 | 5748 ft | 197 kts | 197° |
| 2026-04-30 22:14 | 51.56054 | -0.79674 | 5464 ft | 189 kts | 180° |
| 2026-04-30 22:14 | 51.54765 | -0.79622 | 5199 ft | 182 kts | 177° |
| 2026-04-30 22:14 | 51.53505 | -0.79535 | 4941 ft | 181 kts | 177° |
| 2026-04-30 22:14 | 51.52245 | -0.79450 | 4671 ft | 181 kts | 177° |
| 2026-04-30 22:15 | 51.50995 | -0.79365 | 4421 ft | 179 kts | 176° |
| 2026-04-30 22:15 | 51.49776 | -0.79238 | 4054 ft | 177 kts | 168° |
| 2026-04-30 22:15 | 51.48739 | -0.78254 | 3653 ft | 174 kts | 128° |
| 2026-04-30 22:15 | 51.48331 | -0.76440 | 3489 ft | 174 kts | 109° |
| 2026-04-30 22:16 | 51.48056 | -0.74526 | 3251 ft | 178 kts | 106° |
| 2026-04-30 22:16 | 51.47889 | -0.72569 | 3024 ft | 176 kts | 103° |
| 2026-04-30 22:17 | 51.47686 | -0.66871 | 2343 ft | 163 kts | 97° |
| 2026-04-30 22:17 | 51.47691 | -0.65131 | 2141 ft | 150 kts | 98° |
| 2026-04-30 22:17 | 51.47699 | -0.61842 | 1745 ft | 145 kts | 97° |
| 2026-04-30 22:18 | 51.47707 | -0.60244 | 1549 ft | 145 kts | 96° |
| 2026-04-30 22:18 | 51.47718 | -0.57188 | 1168 ft | 132 kts | 95° |
| 2026-04-30 22:19 | 51.47737 | -0.54221 | 838 ft | 134 kts | 91° |
| 2026-04-30 22:19 | 51.47729 | -0.52703 | 675 ft | 140 kts | 91° |
| 2026-04-30 22:19 | 51.47744 | -0.49611 | 265 ft | 136 kts | 89° |
| 2026-04-30 22:20 | 51.47750 | -0.48075 | 105 ft | 135 kts | 89° |
| 2026-04-30 22:20 | 51.47760 | -0.45909 | 92 ft | 48 kts | 90° |
| 2026-04-30 22:20 | 51.47737 | -0.45508 | 93 ft | 25 kts | 132° |
| 2026-04-30 22:21 | 51.47572 | -0.45467 | 90 ft | 24 kts | 182° |
| 2026-04-30 22:21 | 51.47508 | -0.45617 | 94 ft | 15 kts | 269° |
| 2026-04-30 22:21 | 51.47508 | -0.45640 | 94 ft | 7 kts | 272° |
| 2026-04-30 22:21 | 51.47508 | -0.45650 | 90 ft | 0 kts | 272° |
| 2026-04-30 22:22 | 51.46072 | -0.44804 | 95 ft | 0 kts | 131° |